John R Operle — WDB8611 — position and weather

sailwx.info

Track history (hours):
 
Tides and Currents Weather Stations Pressure Air Temp Water Temp Dewpoint Dewpoint Depression Visibility Wind Speed Wind Dir Waves Ship Positions

John R Operle

Owner: Ingram Barge Company LLC, Nashville, TN. More information available from US FCC via Universal Licensing System and Coast Guard Vessel Documentation Center.

Last reported at 2017-Aug-22 23:34 UTC. Time now 2017-Aug-23 21:11 UTC.
Position N 38°52' W 090°09'.

Length 48 m.

Type: Towing. MMSI: 366961510.

Date/timePositionNaut miles runAvg speedWind from/ knotsBaromVisibWave heightAir tempDewpointWater temp
2017-Aug-22 23:34N 38°52' W 090°09'0 0.4
2017-Aug-22 23:30N 38°52' W 090°09'2 3.7
2017-Aug-22 22:52N 38°54' W 090°12'2 5.5
2017-Aug-22 22:28N 38°55' W 090°14'3 5.5
2017-Aug-22 22:00N 38°55' W 090°17'3 5.3
2017-Aug-22 21:30N 38°56' W 090°20'3 5.8
2017-Aug-22 21:00N 38°58' W 090°24'3 5.5
2017-Aug-22 20:30N 38°57' W 090°27'3 5.9
2017-Aug-22 20:00N 38°55' W 090°30'3 5.7
2017-Aug-22 19:30N 38°53' W 090°32'  
2017-Aug-20 12:32N 40°39' W 091°11'5 4.9
2017-Aug-20 11:37N 40°42' W 091°07'1 5.2
2017-Aug-20 11:25N 40°43' W 091°07'3 4.9
2017-Aug-20 10:49N 40°46' W 091°06'2 5.4
2017-Aug-20 10:30N 40°47' W 091°06'2 4.8
2017-Aug-20 10:00N 40°50' W 091°05'  
2017-Aug-16 23:10N 38°55' W 090°31'1 3.5
2017-Aug-16 23:00N 38°55' W 090°31'2 3.5
2017-Aug-16 22:30N 38°56' W 090°29'2 3.6
2017-Aug-16 22:00N 38°57' W 090°27'2 3.7
2017-Aug-16 21:30N 38°58' W 090°25'1 2.3
2017-Aug-16 21:00N 38°58' W 090°23'2 3.6
2017-Aug-16 20:30N 38°57' W 090°21'2 3.4
2017-Aug-16 20:00N 38°56' W 090°20'2 3.3
2017-Aug-16 19:30N 38°55' W 090°18'1 0.0
2017-Aug-15 13:03N 38°55' W 090°18'0 5.6
2017-Aug-15 13:00N 38°55' W 090°19'3 5.9
2017-Aug-15 12:30N 38°57' W 090°22'3 6.0
2017-Aug-15 12:00N 38°58' W 090°26'3 5.5
2017-Aug-15 11:30N 38°57' W 090°29'3 5.8
2017-Aug-15 11:00N 38°54' W 090°31'  
Track history (hours):
 
Tides and Currents Weather Stations Pressure Air Temp Water Temp Dewpoint Dewpoint Depression Visibility Wind Speed Wind Dir Waves Ship Positions

John R Operle

Owner: Ingram Barge Company LLC, Nashville, TN. More information available from US FCC via Universal Licensing System and Coast Guard Vessel Documentation Center.

Last reported at 2017-Aug-22 23:34 UTC. Time now 2017-Aug-23 21:11 UTC.
Position N 38°52' W 090°09'.

Length 48 m.

Type: Towing. MMSI: 366961510.

Date/timePositionNaut miles runAvg speedWind from/ knotsBaromVisibWave heightAir tempDewpointWater temp
2017-Aug-22 23:34N 38°52' W 090°09'0 0.4
2017-Aug-22 23:30N 38°52' W 090°09'2 3.7
2017-Aug-22 22:52N 38°54' W 090°12'2 5.5
2017-Aug-22 22:28N 38°55' W 090°14'3 5.5
2017-Aug-22 22:00N 38°55' W 090°17'3 5.3
2017-Aug-22 21:30N 38°56' W 090°20'3 5.8
2017-Aug-22 21:00N 38°58' W 090°24'3 5.5
2017-Aug-22 20:30N 38°57' W 090°27'3 5.9
2017-Aug-22 20:00N 38°55' W 090°30'3 5.7
2017-Aug-22 19:30N 38°53' W 090°32'  
2017-Aug-20 12:32N 40°39' W 091°11'5 4.9
2017-Aug-20 11:37N 40°42' W 091°07'1 5.2
2017-Aug-20 11:25N 40°43' W 091°07'3 4.9
2017-Aug-20 10:49N 40°46' W 091°06'2 5.4
2017-Aug-20 10:30N 40°47' W 091°06'2 4.8
2017-Aug-20 10:00N 40°50' W 091°05'  
2017-Aug-16 23:10N 38°55' W 090°31'1 3.5
2017-Aug-16 23:00N 38°55' W 090°31'2 3.5
2017-Aug-16 22:30N 38°56' W 090°29'2 3.6
2017-Aug-16 22:00N 38°57' W 090°27'2 3.7
2017-Aug-16 21:30N 38°58' W 090°25'1 2.3
2017-Aug-16 21:00N 38°58' W 090°23'2 3.6
2017-Aug-16 20:30N 38°57' W 090°21'2 3.4
2017-Aug-16 20:00N 38°56' W 090°20'2 3.3
2017-Aug-16 19:30N 38°55' W 090°18'1 0.0
2017-Aug-15 13:03N 38°55' W 090°18'0 5.6
2017-Aug-15 13:00N 38°55' W 090°19'3 5.9
2017-Aug-15 12:30N 38°57' W 090°22'3 6.0
2017-Aug-15 12:00N 38°58' W 090°26'3 5.5
2017-Aug-15 11:30N 38°57' W 090°29'3 5.8
2017-Aug-15 11:00N 38°54' W 090°31'  

Dump ship's entire track history